sensor_id;sensor_type;location;lat;lon;timestamp;pressure;altitude;pressure_sealevel;temperature;humidity
42621;BME280;28252;53.336;-6.298;2023-06-26T00:00:26;100996.41;;;24.85;94.72
42621;BME280;28252;53.336;-6.298;2023-06-26T00:01:00;100999.94;;;24.86;94.26
42621;BME280;28252;53.336;-6.298;2023-06-26T00:01:32;100999.94;;;24.86;94.31
42621;BME280;28252;53.336;-6.298;2023-06-26T00:02:10;100998.28;;;24.85;94.60
42621;BME280;28252;53.336;-6.298;2023-06-26T00:02:43;101007.28;;;24.85;94.72
42621;BME280;28252;53.336;-6.298;2023-06-26T00:03:19;101007.28;;;24.85;94.54
42621;BME280;28252;53.336;-6.298;2023-06-26T00:03:50;101004.56;;;24.85;94.53
42621;BME280;28252;53.336;-6.298;2023-06-26T00:04:21;101011.91;;;24.85;94.39
42621;BME280;28252;53.336;-6.298;2023-06-26T00:04:55;101000.16;;;24.84;94.64
42621;BME280;28252;53.336;-6.298;2023-06-26T00:05:26;101004.75;;;24.84;94.68
42621;BME280;28252;53.336;-6.298;2023-06-26T00:06:05;101004.75;;;24.84;94.54
42621;BME280;28252;53.336;-6.298;2023-06-26T00:06:41;100999.31;;;24.84;94.21
42621;BME280;28252;53.336;-6.298;2023-06-26T00:07:12;101004.75;;;24.84;94.66
42621;BME280;28252;53.336;-6.298;2023-06-26T00:07:43;101000.38;;;24.83;94.48
42621;BME280;28252;53.336;-6.298;2023-06-26T00:08:17;101004.94;;;24.82;94.58
42621;BME280;28252;53.336;-6.298;2023-06-26T00:08:52;101003.94;;;24.83;94.64
42621;BME280;28252;53.336;-6.298;2023-06-26T00:09:26;100997.66;;;24.83;94.63
42621;BME280;28252;53.336;-6.298;2023-06-26T00:09:59;101002.03;;;24.84;94.34
42621;BME280;28252;53.336;-6.298;2023-06-26T00:10:35;101003.09;;;24.83;94.64
42621;BME280;28252;53.336;-6.298;2023-06-26T00:11:06;101007.69;;;24.82;94.76
42621;BME280;28252;53.336;-6.298;2023-06-26T00:11:37;101003.09;;;24.83;94.79
42621;BME280;28252;53.336;-6.298;2023-06-26T00:12:13;101001.41;;;24.82;94.33
42621;BME280;28252;53.336;-6.298;2023-06-26T00:12:46;101001.41;;;24.82;94.39
42621;BME280;28252;53.336;-6.298;2023-06-26T00:13:19;101007.69;;;24.82;94.67
42621;BME280;28252;53.336;-6.298;2023-06-26T00:13:52;101003.28;;;24.81;94.45
42621;BME280;28252;53.336;-6.298;2023-06-26T00:14:23;101003.28;;;24.81;94.54
42621;BME280;28252;53.336;-6.298;2023-06-26T00:14:57;101000.56;;;24.81;94.83
42621;BME280;28252;53.336;-6.298;2023-06-26T00:15:28;101001.41;;;24.82;94.78
42621;BME280;28252;53.336;-6.298;2023-06-26T00:16:02;101010.59;;;24.80;94.28
42621;BME280;28252;53.336;-6.298;2023-06-26T00:16:36;101007.03;;;24.80;94.44
42621;BME280;28252;53.336;-6.298;2023-06-26T00:17:09;101013.31;;;24.80;94.88
42621;BME280;28252;53.336;-6.298;2023-06-26T00:17:45;101007.88;;;24.80;94.84
42621;BME280;28252;53.336;-6.298;2023-06-26T00:18:16;101003.47;;;24.79;94.83
42621;BME280;28252;53.336;-6.298;2023-06-26T00:18:47;101007.88;;;24.80;94.90
42621;BME280;28252;53.336;-6.298;2023-06-26T00:19:18;101013.31;;;24.80;94.40
42621;BME280;28252;53.336;-6.298;2023-06-26T00:19:51;101003.47;;;24.79;94.58
42621;BME280;28252;53.336;-6.298;2023-06-26T00:20:27;101010.59;;;24.80;94.73
42621;BME280;28252;53.336;-6.298;2023-06-26T00:21:03;101014.38;;;24.79;94.67
42621;BME280;28252;53.336;-6.298;2023-06-26T00:21:34;101009.75;;;24.80;94.32
42621;BME280;28252;53.336;-6.298;2023-06-26T00:22:07;101014.38;;;24.79;94.47
42621;BME280;28252;53.336;-6.298;2023-06-26T00:22:42;101008.91;;;24.79;94.51
42621;BME280;28252;53.336;-6.298;2023-06-26T00:23:13;101011.66;;;24.79;94.38
42621;BME280;28252;53.336;-6.298;2023-06-26T00:23:53;101003.66;;;24.78;94.34
42621;BME280;28252;53.336;-6.298;2023-06-26T00:24:24;101009.94;;;24.78;94.85
42621;BME280;28252;53.336;-6.298;2023-06-26T00:24:55;101007.22;;;24.78;94.91
42621;BME280;28252;53.336;-6.298;2023-06-26T00:25:28;101004.50;;;24.78;94.64
42621;BME280;28252;53.336;-6.298;2023-06-26T00:26:01;101006.38;;;24.78;94.38
42621;BME280;28252;53.336;-6.298;2023-06-26T00:26:38;101009.94;;;24.78;94.47
42621;BME280;28252;53.336;-6.298;2023-06-26T00:27:11;101012.66;;;24.78;94.52
42621;BME280;28252;53.336;-6.298;2023-06-26T00:27:47;101005.56;;;24.77;94.73
42621;BME280;28252;53.336;-6.298;2023-06-26T00:28:20;101009.31;;;24.76;94.74
42621;BME280;28252;53.336;-6.298;2023-06-26T00:28:53;101011.00;;;24.77;94.56
42621;BME280;28252;53.336;-6.298;2023-06-26T00:29:27;101003.84;;;24.76;94.80
42621;BME280;28252;53.336;-6.298;2023-06-26T00:30:01;101012.03;;;24.76;94.54
42621;BME280;28252;53.336;-6.298;2023-06-26T00:30:34;101014.75;;;24.76;94.96
42621;BME280;28252;53.336;-6.298;2023-06-26T00:31:08;101009.31;;;24.76;94.52
42621;BME280;28252;53.336;-6.298;2023-06-26T00:31:39;101013.91;;;24.76;94.78
42621;BME280;28252;53.336;-6.298;2023-06-26T00:32:14;101019.38;;;24.76;95.00
42621;BME280;28252;53.336;-6.298;2023-06-26T00:32:54;101014.75;;;24.76;95.02
42621;BME280;28252;53.336;-6.298;2023-06-26T00:33:30;101013.06;;;24.75;94.67
42621;BME280;28252;53.336;-6.298;2023-06-26T00:38:08;101005.06;;;24.74;94.84
42621;BME280;28252;53.336;-6.298;2023-06-26T00:38:42;101012.41;;;24.73;94.67
42621;BME280;28252;53.336;-6.298;2023-06-26T00:39:13;101009.69;;;24.73;94.73
42621;BME280;28252;53.336;-6.298;2023-06-26T00:39:47;101015.13;;;24.73;95.06
42621;BME280;28252;53.336;-6.298;2023-06-26T00:40:23;101008.84;;;24.73;94.71
42621;BME280;28252;53.336;-6.298;2023-06-26T00:40:54;101003.41;;;24.73;94.69
42621;BME280;28252;53.336;-6.298;2023-06-26T00:41:26;101014.28;;;24.73;95.28
42621;BME280;28252;53.336;-6.298;2023-06-26T00:41:57;101005.28;;;24.72;95.00
42621;BME280;28252;53.336;-6.298;2023-06-26T00:42:31;101010.75;;;24.72;95.01
42621;BME280;28252;53.336;-6.298;2023-06-26T00:43:02;101012.59;;;24.72;94.93
42621;BME280;28252;53.336;-6.298;2023-06-26T00:43:33;101009.88;;;24.72;94.95
42621;BME280;28252;53.336;-6.298;2023-06-26T00:44:06;101012.59;;;24.72;95.22
42621;BME280;28252;53.336;-6.298;2023-06-26T00:44:41;101012.59;;;24.72;94.89
42621;BME280;28252;53.336;-6.298;2023-06-26T00:45:14;101010.06;;;24.70;95.30
42621;BME280;28252;53.336;-6.298;2023-06-26T00:45:48;101011.75;;;24.71;94.94
42621;BME280;28252;53.336;-6.298;2023-06-26T00:46:21;101011.75;;;24.71;95.02
42621;BME280;28252;53.336;-6.298;2023-06-26T00:46:54;101009.88;;;24.72;94.75
42621;BME280;28252;53.336;-6.298;2023-06-26T00:47:30;101002.75;;;24.71;94.84
42621;BME280;28252;53.336;-6.298;2023-06-26T00:48:01;101011.75;;;24.71;95.29
42621;BME280;28252;53.336;-6.298;2023-06-26T00:48:36;101014.50;;;24.71;95.29
42621;BME280;28252;53.336;-6.298;2023-06-26T00:49:10;101012.59;;;24.72;94.88
42621;BME280;28252;53.336;-6.298;2023-06-26T00:49:42;101006.31;;;24.71;94.80
42621;BME280;28252;53.336;-6.298;2023-06-26T00:50:13;101006.31;;;24.71;94.86
42621;BME280;28252;53.336;-6.298;2023-06-26T00:51:47;101012.78;;;24.70;95.39
42621;BME280;28252;53.336;-6.298;2023-06-26T00:52:20;101014.69;;;24.70;95.04
42621;BME280;28252;53.336;-6.298;2023-06-26T00:52:54;101009.22;;;24.70;95.09
42621;BME280;28252;53.336;-6.298;2023-06-26T00:53:27;101010.06;;;24.70;95.23
42621;BME280;28252;53.336;-6.298;2023-06-26T00:54:02;101016.56;;;24.69;95.21
42621;BME280;28252;53.336;-6.298;2023-06-26T00:54:35;101013.84;;;24.69;94.88
42621;BME280;28252;53.336;-6.298;2023-06-26T00:55:07;101013.84;;;24.69;95.46
42621;BME280;28252;53.336;-6.298;2023-06-26T00:55:38;101011.13;;;24.69;95.21
42621;BME280;28252;53.336;-6.298;2023-06-26T00:56:09;101007.53;;;24.69;94.87
42621;BME280;28252;53.336;-6.298;2023-06-26T00:56:42;101019.28;;;24.69;95.13
42621;BME280;28252;53.336;-6.298;2023-06-26T00:57:20;101016.56;;;24.69;95.41
42621;BME280;28252;53.336;-6.298;2023-06-26T00:57:53;101022.00;;;24.69;94.83
42621;BME280;28252;53.336;-6.298;2023-06-26T00:58:27;101023.88;;;24.69;95.20
42621;BME280;28252;53.336;-6.298;2023-06-26T00:58:58;101023.03;;;24.68;95.31
42621;BME280;28252;53.336;-6.298;2023-06-26T00:59:31;101019.47;;;24.68;95.32
42621;BME280;28252;53.336;-6.298;2023-06-26T01:00:04;101015.91;;;24.67;94.94
42621;BME280;28252;53.336;-6.298;2023-06-26T01:00:36;101019.47;;;24.68;95.15
42621;BME280;28252;53.336;-6.298;2023-06-26T01:01:09;101009.59;;;24.67;94.85
42621;BME280;28252;53.336;-6.298;2023-06-26T01:01:48;101018.66;;;24.67;94.83
42621;BME280;28252;53.336;-6.298;2023-06-26T01:02:21;101015.91;;;24.67;95.35
42621;BME280;28252;53.336;-6.298;2023-06-26T01:02:52;101013.19;;;24.67;95.03
42621;BME280;28252;53.336;-6.298;2023-06-26T01:03:26;101014.22;;;24.66;95.12
42621;BME280;28252;53.336;-6.298;2023-06-26T01:04:02;101019.66;;;24.66;94.93
42621;BME280;28252;53.336;-6.298;2023-06-26T01:04:36;101014.22;;;24.66;94.96
42621;BME280;28252;53.336;-6.298;2023-06-26T01:05:12;101022.41;;;24.66;95.31
42621;BME280;28252;53.336;-6.298;2023-06-26T01:05:52;101025.13;;;24.66;95.33
42621;BME280;28252;53.336;-6.298;2023-06-26T01:06:27;101025.13;;;24.66;95.18
42621;BME280;28252;53.336;-6.298;2023-06-26T01:07:02;101016.31;;;24.64;95.21
42621;BME280;28252;53.336;-6.298;2023-06-26T01:07:34;101020.69;;;24.65;95.45
42621;BME280;28252;53.336;-6.298;2023-06-26T01:08:09;101023.41;;;24.65;95.07
42621;BME280;28252;53.336;-6.298;2023-06-26T01:08:44;101019.66;;;24.66;94.94
42621;BME280;28252;53.336;-6.298;2023-06-26T01:09:18;101020.69;;;24.65;95.40
42621;BME280;28252;53.336;-6.298;2023-06-26T01:09:51;101025.31;;;24.65;94.92
42621;BME280;28252;53.336;-6.298;2023-06-26T01:10:25;101026.13;;;24.65;95.09
42621;BME280;28252;53.336;-6.298;2023-06-26T01:11:01;101026.13;;;24.65;95.47
42621;BME280;28252;53.336;-6.298;2023-06-26T01:11:32;101021.75;;;24.64;95.16
42621;BME280;28252;53.336;-6.298;2023-06-26T01:12:06;101024.47;;;24.64;95.32
42621;BME280;28252;53.336;-6.298;2023-06-26T01:12:42;101025.31;;;24.65;94.86
42621;BME280;28252;53.336;-6.298;2023-06-26T01:13:13;101019.03;;;24.64;95.07
42621;BME280;28252;53.336;-6.298;2023-06-26T01:13:47;101031.78;;;24.64;95.29
42621;BME280;28252;53.336;-6.298;2023-06-26T01:14:23;101030.94;;;24.63;95.08
42621;BME280;28252;53.336;-6.298;2023-06-26T01:15:03;101029.06;;;24.64;94.82
42621;BME280;28252;53.336;-6.298;2023-06-26T01:15:37;101031.78;;;24.64;94.92
42621;BME280;28252;53.336;-6.298;2023-06-26T01:16:08;101032.84;;;24.63;95.04
42621;BME280;28252;53.336;-6.298;2023-06-26T01:16:40;101026.56;;;24.62;95.16
42621;BME280;28252;53.336;-6.298;2023-06-26T01:17:13;101028.22;;;24.63;95.23
42621;BME280;28252;53.336;-6.298;2023-06-26T01:17:49;101032.84;;;24.63;94.86
42621;BME280;28252;53.336;-6.298;2023-06-26T01:18:21;101029.28;;;24.62;94.84
42621;BME280;28252;53.336;-6.298;2023-06-26T01:18:54;101022.13;;;24.61;95.20
42621;BME280;28252;53.336;-6.298;2023-06-26T01:19:31;101023.81;;;24.62;95.28
42621;BME280;28252;53.336;-6.298;2023-06-26T01:20:07;101032.00;;;24.62;95.35
42621;BME280;28252;53.336;-6.298;2023-06-26T01:20:39;101035.75;;;24.61;95.31
42621;BME280;28252;53.336;-6.298;2023-06-26T01:21:15;101029.28;;;24.62;94.83
42621;BME280;28252;53.336;-6.298;2023-06-26T01:21:47;101023.81;;;24.62;94.82
42621;BME280;28252;53.336;-6.298;2023-06-26T01:22:43;101029.28;;;24.62;95.02
42621;BME280;28252;53.336;-6.298;2023-06-26T01:23:22;101022.97;;;24.61;94.94
42621;BME280;28252;53.336;-6.298;2023-06-26T01:25:02;101032.19;;;24.60;94.87
42621;BME280;28252;53.336;-6.298;2023-06-26T01:26:28;101039.50;;;24.60;95.06
42621;BME280;28252;53.336;-6.298;2023-06-26T01:27:06;101034.03;;;24.60;95.29
42621;BME280;28252;53.336;-6.298;2023-06-26T01:27:42;101036.75;;;24.60;95.14
42621;BME280;28252;53.336;-6.298;2023-06-26T01:28:17;101036.75;;;24.60;95.32
42621;BME280;28252;53.336;-6.298;2023-06-26T01:28:52;101031.31;;;24.60;94.80
42621;BME280;28252;53.336;-6.298;2023-06-26T01:29:24;101037.81;;;24.59;94.90
42621;BME280;28252;53.336;-6.298;2023-06-26T01:29:59;101038.84;;;24.58;94.99
42621;BME280;28252;53.336;-6.298;2023-06-26T01:30:37;101040.53;;;24.59;94.83
42621;BME280;28252;53.336;-6.298;2023-06-26T01:31:11;101040.53;;;24.59;95.22
42621;BME280;28252;53.336;-6.298;2023-06-26T01:31:45;101035.09;;;24.59;94.97
42621;BME280;28252;53.336;-6.298;2023-06-26T01:32:21;101033.41;;;24.58;95.07
42621;BME280;28252;53.336;-6.298;2023-06-26T01:32:55;101046.00;;;24.59;95.09
42621;BME280;28252;53.336;-6.298;2023-06-26T01:33:28;101037.16;;;24.57;95.15
42621;BME280;28252;53.336;-6.298;2023-06-26T01:34:02;101045.13;;;24.58;94.93
42621;BME280;28252;53.336;-6.298;2023-06-26T01:34:35;101044.28;;;24.58;94.97
42621;BME280;28252;53.336;-6.298;2023-06-26T01:35:10;101042.63;;;24.57;94.85
42621;BME280;28252;53.336;-6.298;2023-06-26T01:35:44;101038.84;;;24.58;94.65
42621;BME280;28252;53.336;-6.298;2023-06-26T01:36:15;101047.19;;;24.56;94.77
42621;BME280;28252;53.336;-6.298;2023-06-26T01:36:51;101047.19;;;24.56;94.72
42621;BME280;28252;53.336;-6.298;2023-06-26T01:37:22;101040.91;;;24.56;95.00
42621;BME280;28252;53.336;-6.298;2023-06-26T01:37:56;101046.38;;;24.56;94.91
42621;BME280;28252;53.336;-6.298;2023-06-26T01:38:43;101048.41;;;24.54;94.54
42621;BME280;28252;53.336;-6.298;2023-06-26T01:39:19;101043.81;;;24.54;94.36
42621;BME280;28252;53.336;-6.298;2023-06-26T01:39:54;101047.53;;;24.53;94.86
42621;BME280;28252;53.336;-6.298;2023-06-26T01:40:29;101050.25;;;24.53;94.88
42621;BME280;28252;53.336;-6.298;2023-06-26T01:41:00;101049.44;;;24.53;94.53
42621;BME280;28252;53.336;-6.298;2023-06-26T01:41:37;101045.00;;;24.52;94.90
42621;BME280;28252;53.336;-6.298;2023-06-26T01:42:14;101048.59;;;24.52;95.08
42621;BME280;28252;53.336;-6.298;2023-06-26T01:42:48;101046.06;;;24.51;94.75
42621;BME280;28252;53.336;-6.298;2023-06-26T01:43:31;101044.16;;;24.51;94.59
42621;BME280;28252;53.336;-6.298;2023-06-26T01:44:17;101048.78;;;24.51;95.07
42621;BME280;28252;53.336;-6.298;2023-06-26T01:44:51;101047.94;;;24.50;94.69
42621;BME280;28252;53.336;-6.298;2023-06-26T01:45:28;101042.50;;;24.50;94.60
42621;BME280;28252;53.336;-6.298;2023-06-26T01:47:04;101037.91;;;24.51;94.92
42621;BME280;28252;53.336;-6.298;2023-06-26T01:47:44;101048.78;;;24.51;95.17
42621;BME280;28252;53.336;-6.298;2023-06-26T01:48:21;101047.09;;;24.50;94.86
42621;BME280;28252;53.336;-6.298;2023-06-26T01:49:03;101052.53;;;24.50;95.03
42621;BME280;28252;53.336;-6.298;2023-06-26T01:49:45;101052.53;;;24.50;95.13
42621;BME280;28252;53.336;-6.298;2023-06-26T01:50:25;101042.69;;;24.49;95.02
42621;BME280;28252;53.336;-6.298;2023-06-26T01:50:58;101050.84;;;24.49;94.80
42621;BME280;28252;53.336;-6.298;2023-06-26T01:51:32;101045.41;;;24.49;95.08
42621;BME280;28252;53.336;-6.298;2023-06-26T01:52:12;101041.63;;;24.50;95.03
42621;BME280;28252;53.336;-6.298;2023-06-26T01:53:36;101044.53;;;24.48;94.90
42621;BME280;28252;53.336;-6.298;2023-06-26T01:54:16;101047.28;;;24.48;94.57
42621;BME280;28252;53.336;-6.298;2023-06-26T01:54:58;101048.13;;;24.49;95.05
42621;BME280;28252;53.336;-6.298;2023-06-26T01:56:17;101054.59;;;24.48;94.87
42621;BME280;28252;53.336;-6.298;2023-06-26T01:56:50;101047.28;;;24.48;95.12
42621;BME280;28252;53.336;-6.298;2023-06-26T01:57:26;101046.44;;;24.48;94.89
42621;BME280;28252;53.336;-6.298;2023-06-26T01:58:00;101049.16;;;24.48;94.84
42621;BME280;28252;53.336;-6.298;2023-06-26T01:58:31;101047.47;;;24.47;94.84
42621;BME280;28252;53.336;-6.298;2023-06-26T01:59:03;101048.31;;;24.47;95.18
42621;BME280;28252;53.336;-6.298;2023-06-26T01:59:36;101051.22;;;24.46;94.98
42621;BME280;28252;53.336;-6.298;2023-06-26T02:00:13;101044.72;;;24.47;95.19
42621;BME280;28252;53.336;-6.298;2023-06-26T02:00:51;101045.78;;;24.46;95.20
42621;BME280;28252;53.336;-6.298;2023-06-26T02:01:22;101047.47;;;24.47;94.84
42621;BME280;28252;53.336;-6.298;2023-06-26T02:01:56;101046.63;;;24.46;94.93
42621;BME280;28252;53.336;-6.298;2023-06-26T02:02:33;101048.50;;;24.46;95.11
42621;BME280;28252;53.336;-6.298;2023-06-26T02:03:07;101046.81;;;24.45;95.12
42621;BME280;28252;53.336;-6.298;2023-06-26T02:03:38;101047.69;;;24.45;94.80
42621;BME280;28252;53.336;-6.298;2023-06-26T02:04:12;101049.53;;;24.45;95.17
42621;BME280;28252;53.336;-6.298;2023-06-26T02:04:43;101051.22;;;24.46;95.01
42621;BME280;28252;53.336;-6.298;2023-06-26T02:05:17;101050.41;;;24.45;95.13
42621;BME280;28252;53.336;-6.298;2023-06-26T02:05:53;101049.53;;;24.45;94.97
42621;BME280;28252;53.336;-6.298;2023-06-26T02:06:30;101049.53;;;24.45;95.02
42621;BME280;28252;53.336;-6.298;2023-06-26T02:07:06;101046.81;;;24.45;94.75
42621;BME280;28252;53.336;-6.298;2023-06-26T02:07:42;101048.69;;;24.44;94.71
42621;BME280;28252;53.336;-6.298;2023-06-26T02:08:18;101046.81;;;24.45;95.14
42621;BME280;28252;53.336;-6.298;2023-06-26T02:09:03;101043.25;;;24.44;95.02
42621;BME280;28252;53.336;-6.298;2023-06-26T02:09:37;101047.00;;;24.43;95.11
42621;BME280;28252;53.336;-6.298;2023-06-26T02:10:08;101048.88;;;24.42;95.00
42621;BME280;28252;53.336;-6.298;2023-06-26T02:10:41;101043.44;;;24.42;94.92
42621;BME280;28252;53.336;-6.298;2023-06-26T02:11:12;101042.59;;;24.42;95.01
42621;BME280;28252;53.336;-6.298;2023-06-26T02:11:44;101047.00;;;24.43;95.13
42621;BME280;28252;53.336;-6.298;2023-06-26T02:12:20;101041.75;;;24.41;94.80
42621;BME280;28252;53.336;-6.298;2023-06-26T02:12:51;101041.75;;;24.41;95.30
42621;BME280;28252;53.336;-6.298;2023-06-26T02:13:24;101044.47;;;24.41;94.90
42621;BME280;28252;53.336;-6.298;2023-06-26T02:13:55;101044.47;;;24.41;95.07
42621;BME280;28252;53.336;-6.298;2023-06-26T02:14:28;101047.19;;;24.41;94.88
42621;BME280;28252;53.336;-6.298;2023-06-26T02:15:04;101044.47;;;24.41;95.01
42621;BME280;28252;53.336;-6.298;2023-06-26T02:15:40;101044.47;;;24.41;94.83
42621;BME280;28252;53.336;-6.298;2023-06-26T02:16:16;101037.34;;;24.40;94.87
42621;BME280;28252;53.336;-6.298;2023-06-26T02:16:47;101047.41;;;24.40;94.98
42621;BME280;28252;53.336;-6.298;2023-06-26T02:17:20;101049.91;;;24.41;94.87
42621;BME280;28252;53.336;-6.298;2023-06-26T02:17:53;101037.34;;;24.40;94.91
42621;BME280;28252;53.336;-6.298;2023-06-26T02:18:24;101042.78;;;24.40;95.17
42621;BME280;28252;53.336;-6.298;2023-06-26T02:19:03;101048.25;;;24.40;95.26
42621;BME280;28252;53.336;-6.298;2023-06-26T02:19:36;101046.53;;;24.39;95.37
42621;BME280;28252;53.336;-6.298;2023-06-26T02:20:11;101047.41;;;24.40;95.39
42621;BME280;28252;53.336;-6.298;2023-06-26T02:20:46;101041.97;;;24.40;95.35
42621;BME280;28252;53.336;-6.298;2023-06-26T02:21:19;101051.97;;;24.39;95.36
42621;BME280;28252;53.336;-6.298;2023-06-26T02:21:54;101044.69;;;24.40;95.09
42621;BME280;28252;53.336;-6.298;2023-06-26T02:22:29;101051.97;;;24.39;95.10
42621;BME280;28252;53.336;-6.298;2023-06-26T02:23:00;101046.53;;;24.39;95.36
42621;BME280;28252;53.336;-6.298;2023-06-26T02:23:31;101044.88;;;24.38;94.84
42621;BME280;28252;53.336;-6.298;2023-06-26T02:24:07;101047.59;;;24.38;95.40
42621;BME280;28252;53.336;-6.298;2023-06-26T02:24:38;101053.88;;;24.39;95.01
42621;BME280;28252;53.336;-6.298;2023-06-26T02:25:14;101044.88;;;24.38;95.08
42621;BME280;28252;53.336;-6.298;2023-06-26T02:25:51;101044.88;;;24.38;95.12
42621;BME280;28252;53.336;-6.298;2023-06-26T02:26:26;101050.31;;;24.38;95.45
42621;BME280;28252;53.336;-6.298;2023-06-26T02:27:01;101043.16;;;24.37;95.21
42621;BME280;28252;53.336;-6.298;2023-06-26T02:27:34;101047.78;;;24.37;95.41
42621;BME280;28252;53.336;-6.298;2023-06-26T02:28:07;101043.16;;;24.37;95.17
42621;BME280;28252;53.336;-6.298;2023-06-26T02:28:40;101038.75;;;24.36;95.16
42621;BME280;28252;53.336;-6.298;2023-06-26T02:29:16;101043.16;;;24.37;95.44
42621;BME280;28252;53.336;-6.298;2023-06-26T02:29:47;101041.47;;;24.36;95.14
42621;BME280;28252;53.336;-6.298;2023-06-26T02:30:23;101048.59;;;24.37;95.20
42621;BME280;28252;53.336;-6.298;2023-06-26T02:30:57;101046.91;;;24.36;95.16
42621;BME280;28252;53.336;-6.298;2023-06-26T02:31:33;101043.16;;;24.37;95.26
42621;BME280;28252;53.336;-6.298;2023-06-26T02:32:06;101052.34;;;24.36;95.28
42621;BME280;28252;53.336;-6.298;2023-06-26T02:32:43;101041.69;;;24.35;95.17
42621;BME280;28252;53.336;-6.298;2023-06-26T02:33:19;101046.06;;;24.36;95.21
42621;BME280;28252;53.336;-6.298;2023-06-26T02:33:57;101044.19;;;24.36;95.22
42621;BME280;28252;53.336;-6.298;2023-06-26T02:34:30;101049.63;;;24.36;95.04
42621;BME280;28252;53.336;-6.298;2023-06-26T02:35:07;101045.25;;;24.35;95.20
42621;BME280;28252;53.336;-6.298;2023-06-26T02:40:00;101046.44;;;24.33;95.24
42621;BME280;28252;53.336;-6.298;2023-06-26T02:40:32;101040.16;;;24.32;95.22
42621;BME280;28252;53.336;-6.298;2023-06-26T02:41:08;101051.06;;;24.32;95.43
42621;BME280;28252;53.336;-6.298;2023-06-26T02:41:42;101043.91;;;24.31;95.40
42621;BME280;28252;53.336;-6.298;2023-06-26T02:42:21;101046.63;;;24.31;95.23
42621;BME280;28252;53.336;-6.298;2023-06-26T02:42:58;101047.69;;;24.30;94.99
42621;BME280;28252;53.336;-6.298;2023-06-26T02:43:38;101053.97;;;24.31;95.24
42621;BME280;28252;53.336;-6.298;2023-06-26T02:44:12;101050.41;;;24.30;95.18
42621;BME280;28252;53.336;-6.298;2023-06-26T02:44:47;101056.03;;;24.29;95.17
42621;BME280;28252;53.336;-6.298;2023-06-26T02:45:20;101052.28;;;24.30;94.84
42621;BME280;28252;53.336;-6.298;2023-06-26T02:45:54;101058.56;;;24.30;94.88
42621;BME280;28252;53.336;-6.298;2023-06-26T02:46:31;101052.28;;;24.30;95.19
42621;BME280;28252;53.336;-6.298;2023-06-26T02:47:02;101051.44;;;24.29;94.76
42621;BME280;28252;53.336;-6.298;2023-06-26T02:47:36;101059.59;;;24.29;95.02
42621;BME280;28252;53.336;-6.298;2023-06-26T02:48:16;101061.47;;;24.29;95.10
42621;BME280;28252;53.336;-6.298;2023-06-26T02:48:50;101049.75;;;24.28;94.81
42621;BME280;28252;53.336;-6.298;2023-06-26T02:49:21;101062.31;;;24.29;95.05
42621;BME280;28252;53.336;-6.298;2023-06-26T02:49:52;101060.66;;;24.28;94.72
42621;BME280;28252;53.336;-6.298;2023-06-26T02:50:27;101061.47;;;24.29;95.03
42621;BME280;28252;53.336;-6.298;2023-06-26T02:51:11;101062.50;;;24.28;94.90
42621;BME280;28252;53.336;-6.298;2023-06-26T02:51:42;101060.66;;;24.28;94.55
42621;BME280;28252;53.336;-6.298;2023-06-26T02:52:19;101066.09;;;24.28;94.83
42621;BME280;28252;53.336;-6.298;2023-06-26T02:52:53;101062.50;;;24.28;94.72
42621;BME280;28252;53.336;-6.298;2023-06-26T02:53:31;101065.41;;;24.26;94.62
42621;BME280;28252;53.336;-6.298;2023-06-26T02:54:06;101066.28;;;24.27;95.07
42621;BME280;28252;53.336;-6.298;2023-06-26T02:54:40;101063.56;;;24.27;94.65
42621;BME280;28252;53.336;-6.298;2023-06-26T02:55:11;101061.84;;;24.26;94.61
42621;BME280;28252;53.336;-6.298;2023-06-26T02:55:47;101057.25;;;24.26;95.10
42621;BME280;28252;53.336;-6.298;2023-06-26T02:56:23;101058.28;;;24.25;94.98
42621;BME280;28252;53.336;-6.298;2023-06-26T02:57:00;101060.16;;;24.24;94.88
42621;BME280;28252;53.336;-6.298;2023-06-26T02:57:35;101061.03;;;24.25;94.65
42621;BME280;28252;53.336;-6.298;2023-06-26T02:58:13;101068.13;;;24.26;95.01
42621;BME280;28252;53.336;-6.298;2023-06-26T02:58:46;101062.03;;;24.24;95.05
42621;BME280;28252;53.336;-6.298;2023-06-26T02:59:22;101069.19;;;24.25;94.71
42621;BME280;28252;53.336;-6.298;2023-06-26T02:59:53;101059.31;;;24.24;94.73
42621;BME280;28252;53.336;-6.298;2023-06-26T03:00:26;101068.53;;;24.23;95.03
42621;BME280;28252;53.336;-6.298;2023-06-26T03:01:00;101062.22;;;24.22;94.71
42621;BME280;28252;53.336;-6.298;2023-06-26T03:01:31;101055.94;;;24.22;95.07
42621;BME280;28252;53.336;-6.298;2023-06-26T03:02:05;101065.81;;;24.23;95.09
42621;BME280;28252;53.336;-6.298;2023-06-26T03:02:46;101076.69;;;24.23;94.61
42621;BME280;28252;53.336;-6.298;2023-06-26T03:03:22;101073.97;;;24.23;94.80
42621;BME280;28252;53.336;-6.298;2023-06-26T03:03:55;101068.72;;;24.21;94.76
42621;BME280;28252;53.336;-6.298;2023-06-26T03:04:31;101072.28;;;24.22;94.71
42621;BME280;28252;53.336;-6.298;2023-06-26T03:05:10;101072.28;;;24.22;94.81
42621;BME280;28252;53.336;-6.298;2023-06-26T03:05:48;101065.13;;;24.21;94.80
42621;BME280;28252;53.336;-6.298;2023-06-26T03:10:20;101069.94;;;24.19;94.96
42621;BME280;28252;53.336;-6.298;2023-06-26T03:10:54;101078.09;;;24.19;95.15
42621;BME280;28252;53.336;-6.298;2023-06-26T03:11:27;101072.66;;;24.19;94.76
42621;BME280;28252;53.336;-6.298;2023-06-26T03:11:59;101071.81;;;24.18;95.22
42621;BME280;28252;53.336;-6.298;2023-06-26T03:12:35;101075.56;;;24.17;95.18
42621;BME280;28252;53.336;-6.298;2023-06-26T03:13:05;101072.84;;;24.17;94.92
42621;BME280;28252;53.336;-6.298;2023-06-26T03:13:39;101072.00;;;24.17;95.04
42621;BME280;28252;53.336;-6.298;2023-06-26T03:18:48;101069.66;;;24.14;94.91
42621;BME280;28252;53.336;-6.298;2023-06-26T03:19:22;101069.66;;;24.14;95.10
42621;BME280;28252;53.336;-6.298;2023-06-26T03:20:18;101067.97;;;24.13;95.06
42621;BME280;28252;53.336;-6.298;2023-06-26T03:21:05;101074.25;;;24.13;95.01